sensor_id;sensor_type;location;lat;lon;timestamp;temperature;humidity
19037;DHT22;9651;49.138;8.900;2022-12-20T00:02:01;3.20;99.90
19037;DHT22;9651;49.138;8.900;2022-12-20T00:06:05;3.20;99.90
19037;DHT22;9651;49.138;8.900;2022-12-20T00:10:07;3.20;99.90
19037;DHT22;9651;49.138;8.900;2022-12-20T00:14:09;3.20;99.90
19037;DHT22;9651;49.138;8.900;2022-12-20T00:18:11;3.20;99.90
19037;DHT22;9651;49.138;8.900;2022-12-20T00:22:14;3.30;99.90
19037;DHT22;9651;49.138;8.900;2022-12-20T00:26:18;3.30;99.90
19037;DHT22;9651;49.138;8.900;2022-12-20T00:30:20;3.40;99.90
19037;DHT22;9651;49.138;8.900;2022-12-20T00:34:23;3.40;99.90
19037;DHT22;9651;49.138;8.900;2022-12-20T00:38:26;3.40;99.90
19037;DHT22;9651;49.138;8.900;2022-12-20T00:42:28;3.50;99.90
19037;DHT22;9651;49.138;8.900;2022-12-20T00:46:30;3.50;99.90
19037;DHT22;9651;49.138;8.900;2022-12-20T00:50:34;3.50;99.90
19037;DHT22;9651;49.138;8.900;2022-12-20T00:54:37;3.60;99.90
19037;DHT22;9651;49.138;8.900;2022-12-20T00:58:41;3.50;99.90
19037;DHT22;9651;49.138;8.900;2022-12-20T01:02:43;3.60;99.90
19037;DHT22;9651;49.138;8.900;2022-12-20T01:06:44;3.60;99.90
19037;DHT22;9651;49.138;8.900;2022-12-20T01:10:57;3.70;99.90
19037;DHT22;9651;49.138;8.900;2022-12-20T01:14:59;3.70;99.90
19037;DHT22;9651;49.138;8.900;2022-12-20T01:19:01;3.70;99.90
19037;DHT22;9651;49.138;8.900;2022-12-20T01:23:03;3.80;99.90
19037;DHT22;9651;49.138;8.900;2022-12-20T01:27:06;3.70;99.90
19037;DHT22;9651;49.138;8.900;2022-12-20T01:31:11;3.70;99.90
19037;DHT22;9651;49.138;8.900;2022-12-20T01:35:13;3.70;99.90
19037;DHT22;9651;49.138;8.900;2022-12-20T01:39:16;3.70;99.90
19037;DHT22;9651;49.138;8.900;2022-12-20T01:43:21;3.70;99.90
19037;DHT22;9651;49.138;8.900;2022-12-20T01:47:24;3.70;99.90
19037;DHT22;9651;49.138;8.900;2022-12-20T01:51:29;3.80;99.90
19037;DHT22;9651;49.138;8.900;2022-12-20T01:55:32;3.80;99.90
19037;DHT22;9651;49.138;8.900;2022-12-20T01:59:38;3.80;99.90
19037;DHT22;9651;49.138;8.900;2022-12-20T02:03:41;3.80;99.90
19037;DHT22;9651;49.138;8.900;2022-12-20T02:07:45;3.90;99.90
19037;DHT22;9651;49.138;8.900;2022-12-20T02:12:01;3.90;99.90
19037;DHT22;9651;49.138;8.900;2022-12-20T02:16:14;3.90;99.90
19037;DHT22;9651;49.138;8.900;2022-12-20T02:20:44;3.90;99.90
19037;DHT22;9651;49.138;8.900;2022-12-20T02:25:04;3.90;99.90
19037;DHT22;9651;49.138;8.900;2022-12-20T02:29:20;3.90;99.90
19037;DHT22;9651;49.138;8.900;2022-12-20T02:33:26;3.90;99.90
19037;DHT22;9651;49.138;8.900;2022-12-20T02:37:29;4.00;99.90
19037;DHT22;9651;49.138;8.900;2022-12-20T02:41:32;4.00;99.90
19037;DHT22;9651;49.138;8.900;2022-12-20T02:45:37;4.00;99.90
19037;DHT22;9651;49.138;8.900;2022-12-20T02:49:41;4.00;99.90
19037;DHT22;9651;49.138;8.900;2022-12-20T02:53:45;3.90;99.90
19037;DHT22;9651;49.138;8.900;2022-12-20T02:57:50;3.90;99.90
19037;DHT22;9651;49.138;8.900;2022-12-20T03:01:56;3.90;99.90
19037;DHT22;9651;49.138;8.900;2022-12-20T03:06:02;3.90;99.90
19037;DHT22;9651;49.138;8.900;2022-12-20T03:10:05;3.90;99.90
19037;DHT22;9651;49.138;8.900;2022-12-20T03:14:07;3.90;99.90
19037;DHT22;9651;49.138;8.900;2022-12-20T03:18:10;4.00;99.90
19037;DHT22;9651;49.138;8.900;2022-12-20T03:22:13;3.90;99.90
19037;DHT22;9651;49.138;8.900;2022-12-20T03:26:15;3.90;99.90
19037;DHT22;9651;49.138;8.900;2022-12-20T03:30:22;4.00;99.90
19037;DHT22;9651;49.138;8.900;2022-12-20T03:34:24;4.00;99.90
19037;DHT22;9651;49.138;8.900;2022-12-20T03:38:27;4.00;99.90
19037;DHT22;9651;49.138;8.900;2022-12-20T03:42:29;4.00;99.90
19037;DHT22;9651;49.138;8.900;2022-12-20T03:46:31;4.00;99.90
19037;DHT22;9651;49.138;8.900;2022-12-20T03:50:33;4.00;99.90
19037;DHT22;9651;49.138;8.900;2022-12-20T03:54:38;4.00;99.90
19037;DHT22;9651;49.138;8.900;2022-12-20T03:58:44;4.00;99.90
19037;DHT22;9651;49.138;8.900;2022-12-20T04:02:49;3.90;99.90
19037;DHT22;9651;49.138;8.900;2022-12-20T04:06:51;3.90;99.90
19037;DHT22;9651;49.138;8.900;2022-12-20T04:10:55;4.00;99.90
19037;DHT22;9651;49.138;8.900;2022-12-20T04:15:17;4.00;99.90
19037;DHT22;9651;49.138;8.900;2022-12-20T04:19:21;4.00;99.90
19037;DHT22;9651;49.138;8.900;2022-12-20T04:23:24;4.00;99.90
19037;DHT22;9651;49.138;8.900;2022-12-20T04:27:27;4.00;99.90
19037;DHT22;9651;49.138;8.900;2022-12-20T04:31:31;4.00;99.90
19037;DHT22;9651;49.138;8.900;2022-12-20T04:35:34;4.00;99.90
19037;DHT22;9651;49.138;8.900;2022-12-20T04:39:36;4.00;99.90
19037;DHT22;9651;49.138;8.900;2022-12-20T04:44:15;4.00;99.90
19037;DHT22;9651;49.138;8.900;2022-12-20T04:48:18;4.00;99.90
19037;DHT22;9651;49.138;8.900;2022-12-20T04:52:20;4.00;99.90
19037;DHT22;9651;49.138;8.900;2022-12-20T04:56:39;4.00;99.90
19037;DHT22;9651;49.138;8.900;2022-12-20T05:00:50;4.00;99.90
19037;DHT22;9651;49.138;8.900;2022-12-20T05:04:59;4.00;99.90
19037;DHT22;9651;49.138;8.900;2022-12-20T05:09:01;4.10;99.90
19037;DHT22;9651;49.138;8.900;2022-12-20T05:13:04;4.00;99.90
19037;DHT22;9651;49.138;8.900;2022-12-20T05:17:13;4.10;99.90
19037;DHT22;9651;49.138;8.900;2022-12-20T05:21:15;4.10;99.90
19037;DHT22;9651;49.138;8.900;2022-12-20T05:25:35;4.20;99.90
19037;DHT22;9651;49.138;8.900;2022-12-20T05:29:55;4.20;99.90
19037;DHT22;9651;49.138;8.900;2022-12-20T05:34:00;4.20;99.90
19037;DHT22;9651;49.138;8.900;2022-12-20T05:38:05;4.20;99.90
19037;DHT22;9651;49.138;8.900;2022-12-20T05:42:07;4.20;99.90
19037;DHT22;9651;49.138;8.900;2022-12-20T05:46:09;4.20;99.90
19037;DHT22;9651;49.138;8.900;2022-12-20T05:50:27;4.20;99.90
19037;DHT22;9651;49.138;8.900;2022-12-20T05:54:47;4.30;99.90
19037;DHT22;9651;49.138;8.900;2022-12-20T05:58:51;4.20;99.90
19037;DHT22;9651;49.138;8.900;2022-12-20T06:02:54;4.20;99.90
19037;DHT22;9651;49.138;8.900;2022-12-20T06:06:57;4.20;99.90
19037;DHT22;9651;49.138;8.900;2022-12-20T06:11:00;4.30;99.90
19037;DHT22;9651;49.138;8.900;2022-12-20T06:15:06;4.30;99.90
19037;DHT22;9651;49.138;8.900;2022-12-20T06:19:09;4.30;99.90
19037;DHT22;9651;49.138;8.900;2022-12-20T06:23:12;4.30;99.90
19037;DHT22;9651;49.138;8.900;2022-12-20T06:27:21;4.30;99.90
19037;DHT22;9651;49.138;8.900;2022-12-20T06:31:32;4.30;99.90
19037;DHT22;9651;49.138;8.900;2022-12-20T06:35:35;4.20;99.90
19037;DHT22;9651;49.138;8.900;2022-12-20T06:39:38;4.20;99.90
19037;DHT22;9651;49.138;8.900;2022-12-20T06:43:42;4.20;99.90
19037;DHT22;9651;49.138;8.900;2022-12-20T06:47:44;4.20;99.90
19037;DHT22;9651;49.138;8.900;2022-12-20T06:51:46;4.20;99.90
19037;DHT22;9651;49.138;8.900;2022-12-20T06:55:50;4.20;99.90
19037;DHT22;9651;49.138;8.900;2022-12-20T06:59:52;4.20;99.90
19037;DHT22;9651;49.138;8.900;2022-12-20T07:03:54;4.10;99.90
19037;DHT22;9651;49.138;8.900;2022-12-20T07:07:56;4.00;99.90
19037;DHT22;9651;49.138;8.900;2022-12-20T07:11:59;4.10;99.90
19037;DHT22;9651;49.138;8.900;2022-12-20T07:16:01;4.10;99.90
19037;DHT22;9651;49.138;8.900;2022-12-20T07:20:05;4.10;99.90
19037;DHT22;9651;49.138;8.900;2022-12-20T07:24:08;4.10;99.90
19037;DHT22;9651;49.138;8.900;2022-12-20T07:28:11;4.00;99.90
19037;DHT22;9651;49.138;8.900;2022-12-20T07:32:13;4.10;99.90
19037;DHT22;9651;49.138;8.900;2022-12-20T07:36:15;4.10;99.90
19037;DHT22;9651;49.138;8.900;2022-12-20T07:40:17;4.10;99.90
19037;DHT22;9651;49.138;8.900;2022-12-20T07:44:20;4.10;99.90
19037;DHT22;9651;49.138;8.900;2022-12-20T07:48:23;4.10;99.90
19037;DHT22;9651;49.138;8.900;2022-12-20T07:52:27;4.20;99.90
19037;DHT22;9651;49.138;8.900;2022-12-20T07:56:31;4.20;99.90
19037;DHT22;9651;49.138;8.900;2022-12-20T08:00:35;4.20;99.90
19037;DHT22;9651;49.138;8.900;2022-12-20T08:04:37;4.20;99.90
19037;DHT22;9651;49.138;8.900;2022-12-20T08:08:45;4.30;99.90
19037;DHT22;9651;49.138;8.900;2022-12-20T08:12:48;4.40;99.90
19037;DHT22;9651;49.138;8.900;2022-12-20T08:16:52;4.40;99.90
19037;DHT22;9651;49.138;8.900;2022-12-20T08:20:54;4.50;99.90
19037;DHT22;9651;49.138;8.900;2022-12-20T08:24:55;4.50;99.90
19037;DHT22;9651;49.138;8.900;2022-12-20T08:28:57;4.60;99.90
19037;DHT22;9651;49.138;8.900;2022-12-20T08:33:01;4.70;99.90
19037;DHT22;9651;49.138;8.900;2022-12-20T08:37:02;4.70;99.90
19037;DHT22;9651;49.138;8.900;2022-12-20T08:41:06;4.80;99.90
19037;DHT22;9651;49.138;8.900;2022-12-20T08:45:08;4.80;99.90
19037;DHT22;9651;49.138;8.900;2022-12-20T08:49:12;4.90;99.90
19037;DHT22;9651;49.138;8.900;2022-12-20T08:53:13;5.00;99.90
19037;DHT22;9651;49.138;8.900;2022-12-20T08:57:15;5.20;99.90
19037;DHT22;9651;49.138;8.900;2022-12-20T09:01:19;5.40;99.90
19037;DHT22;9651;49.138;8.900;2022-12-20T09:05:22;5.60;99.90
19037;DHT22;9651;49.138;8.900;2022-12-20T09:09:24;5.90;99.90
19037;DHT22;9651;49.138;8.900;2022-12-20T09:13:26;6.20;99.90
19037;DHT22;9651;49.138;8.900;2022-12-20T09:17:28;6.30;99.90
19037;DHT22;9651;49.138;8.900;2022-12-20T09:21:31;6.40;99.90
19037;DHT22;9651;49.138;8.900;2022-12-20T09:25:33;6.50;99.90
19037;DHT22;9651;49.138;8.900;2022-12-20T09:29:37;6.70;99.90
19037;DHT22;9651;49.138;8.900;2022-12-20T09:33:39;6.80;99.90
19037;DHT22;9651;49.138;8.900;2022-12-20T09:37:42;6.80;99.90
19037;DHT22;9651;49.138;8.900;2022-12-20T09:41:44;6.90;99.90
19037;DHT22;9651;49.138;8.900;2022-12-20T09:45:47;7.10;99.90
19037;DHT22;9651;49.138;8.900;2022-12-20T09:49:54;7.30;99.90
19037;DHT22;9651;49.138;8.900;2022-12-20T09:54:06;7.50;99.90
19037;DHT22;9651;49.138;8.900;2022-12-20T09:58:32;7.60;99.90
19037;DHT22;9651;49.138;8.900;2022-12-20T10:02:37;7.70;99.90
19037;DHT22;9651;49.138;8.900;2022-12-20T10:06:48;7.80;99.90
19037;DHT22;9651;49.138;8.900;2022-12-20T10:10:56;7.80;99.90
19037;DHT22;9651;49.138;8.900;2022-12-20T10:15:12;7.80;99.90
19037;DHT22;9651;49.138;8.900;2022-12-20T10:23:50;8.00;99.90
19037;DHT22;9651;49.138;8.900;2022-12-20T10:28:04;8.00;99.90
19037;DHT22;9651;49.138;8.900;2022-12-20T10:32:12;8.00;99.90
19037;DHT22;9651;49.138;8.900;2022-12-20T10:36:23;7.90;99.90
19037;DHT22;9651;49.138;8.900;2022-12-20T10:40:29;7.90;99.90
19037;DHT22;9651;49.138;8.900;2022-12-20T10:44:32;7.90;99.90
19037;DHT22;9651;49.138;8.900;2022-12-20T10:48:36;7.90;99.90
19037;DHT22;9651;49.138;8.900;2022-12-20T10:52:39;7.90;99.90
19037;DHT22;9651;49.138;8.900;2022-12-20T10:56:40;8.00;99.90
19037;DHT22;9651;49.138;8.900;2022-12-20T11:01:03;8.10;99.90
19037;DHT22;9651;49.138;8.900;2022-12-20T11:05:20;8.20;99.90
19037;DHT22;9651;49.138;8.900;2022-12-20T11:09:30;8.20;99.90
19037;DHT22;9651;49.138;8.900;2022-12-20T11:13:32;8.20;99.90
19037;DHT22;9651;49.138;8.900;2022-12-20T11:17:38;8.30;99.90
19037;DHT22;9651;49.138;8.900;2022-12-20T11:21:45;8.30;99.90
19037;DHT22;9651;49.138;8.900;2022-12-20T11:26:00;8.30;99.90
19037;DHT22;9651;49.138;8.900;2022-12-20T11:30:14;8.30;99.90
19037;DHT22;9651;49.138;8.900;2022-12-20T11:34:26;8.20;99.90
19037;DHT22;9651;49.138;8.900;2022-12-20T11:38:39;8.20;99.90
19037;DHT22;9651;49.138;8.900;2022-12-20T11:42:58;8.20;99.90
19037;DHT22;9651;49.138;8.900;2022-12-20T11:47:24;8.20;99.90
19037;DHT22;9651;49.138;8.900;2022-12-20T11:51:36;8.20;99.90
19037;DHT22;9651;49.138;8.900;2022-12-20T11:55:42;8.30;99.90
19037;DHT22;9651;49.138;8.900;2022-12-20T11:59:50;8.30;99.90
19037;DHT22;9651;49.138;8.900;2022-12-20T12:04:02;8.40;99.90
19037;DHT22;9651;49.138;8.900;2022-12-20T12:08:12;8.40;99.90
19037;DHT22;9651;49.138;8.900;2022-12-20T12:12:21;8.40;99.90
19037;DHT22;9651;49.138;8.900;2022-12-20T12:16:27;8.50;99.90
19037;DHT22;9651;49.138;8.900;2022-12-20T12:20:38;8.50;99.90
19037;DHT22;9651;49.138;8.900;2022-12-20T12:24:45;8.50;99.90
19037;DHT22;9651;49.138;8.900;2022-12-20T12:28:52;8.50;99.90
19037;DHT22;9651;49.138;8.900;2022-12-20T12:32:59;8.50;99.90
19037;DHT22;9651;49.138;8.900;2022-12-20T12:42:08;8.70;99.90
19037;DHT22;9651;49.138;8.900;2022-12-20T12:46:16;8.70;99.90
19037;DHT22;9651;49.138;8.900;2022-12-20T12:50:23;8.70;99.90
19037;DHT22;9651;49.138;8.900;2022-12-20T12:54:28;8.70;99.90
19037;DHT22;9651;49.138;8.900;2022-12-20T12:58:33;8.80;99.90
19037;DHT22;9651;49.138;8.900;2022-12-20T13:02:49;8.90;99.90
19037;DHT22;9651;49.138;8.900;2022-12-20T13:06:59;9.20;99.90
19037;DHT22;9651;49.138;8.900;2022-12-20T13:11:01;9.50;99.90
19037;DHT22;9651;49.138;8.900;2022-12-20T13:20:00;9.40;99.90
19037;DHT22;9651;49.138;8.900;2022-12-20T13:24:34;9.20;99.90
19037;DHT22;9651;49.138;8.900;2022-12-20T13:28:43;9.10;99.90
19037;DHT22;9651;49.138;8.900;2022-12-20T13:37:27;9.00;99.90
19037;DHT22;9651;49.138;8.900;2022-12-20T13:41:36;8.90;99.90
19037;DHT22;9651;49.138;8.900;2022-12-20T13:45:42;8.80;99.90
19037;DHT22;9651;49.138;8.900;2022-12-20T13:49:47;8.80;99.90
19037;DHT22;9651;49.138;8.900;2022-12-20T13:53:52;8.70;99.90
19037;DHT22;9651;49.138;8.900;2022-12-20T13:57:54;8.70;99.90
19037;DHT22;9651;49.138;8.900;2022-12-20T14:01:58;8.60;99.90
19037;DHT22;9651;49.138;8.900;2022-12-20T14:06:04;8.50;99.90
19037;DHT22;9651;49.138;8.900;2022-12-20T14:10:21;8.40;99.90
19037;DHT22;9651;49.138;8.900;2022-12-20T14:14:24;8.30;99.90
19037;DHT22;9651;49.138;8.900;2022-12-20T14:18:28;8.30;99.90
19037;DHT22;9651;49.138;8.900;2022-12-20T14:22:32;8.20;99.90
19037;DHT22;9651;49.138;8.900;2022-12-20T14:26:40;8.20;99.90
19037;DHT22;9651;49.138;8.900;2022-12-20T14:30:44;8.20;99.90
19037;DHT22;9651;49.138;8.900;2022-12-20T14:34:46;8.10;99.90
19037;DHT22;9651;49.138;8.900;2022-12-20T14:38:50;8.10;99.90
19037;DHT22;9651;49.138;8.900;2022-12-20T14:42:53;8.10;99.90
19037;DHT22;9651;49.138;8.900;2022-12-20T14:46:56;8.10;99.90
19037;DHT22;9651;49.138;8.900;2022-12-20T14:50:58;8.00;99.90
19037;DHT22;9651;49.138;8.900;2022-12-20T14:55:04;8.00;99.90
19037;DHT22;9651;49.138;8.900;2022-12-20T14:59:13;8.00;99.90
19037;DHT22;9651;49.138;8.900;2022-12-20T15:03:17;7.90;99.90
19037;DHT22;9651;49.138;8.900;2022-12-20T15:07:28;7.90;99.90
19037;DHT22;9651;49.138;8.900;2022-12-20T15:11:33;7.80;99.90
19037;DHT22;9651;49.138;8.900;2022-12-20T15:15:36;7.70;99.90
19037;DHT22;9651;49.138;8.900;2022-12-20T15:19:38;7.60;99.90
19037;DHT22;9651;49.138;8.900;2022-12-20T15:23:42;7.60;99.90
19037;DHT22;9651;49.138;8.900;2022-12-20T15:27:47;7.50;99.90
19037;DHT22;9651;49.138;8.900;2022-12-20T15:31:49;7.50;99.90
19037;DHT22;9651;49.138;8.900;2022-12-20T15:35:52;7.50;99.90
19037;DHT22;9651;49.138;8.900;2022-12-20T15:39:57;7.40;99.90
19037;DHT22;9651;49.138;8.900;2022-12-20T15:44:03;7.40;99.90
19037;DHT22;9651;49.138;8.900;2022-12-20T15:48:11;7.30;99.90
19037;DHT22;9651;49.138;8.900;2022-12-20T15:52:18;7.20;99.90
19037;DHT22;9651;49.138;8.900;2022-12-20T15:56:21;7.10;99.90
19037;DHT22;9651;49.138;8.900;2022-12-20T16:00:25;7.10;99.90
19037;DHT22;9651;49.138;8.900;2022-12-20T16:04:27;7.00;99.90
19037;DHT22;9651;49.138;8.900;2022-12-20T16:08:29;7.00;99.90
19037;DHT22;9651;49.138;8.900;2022-12-20T16:12:32;6.90;99.90
19037;DHT22;9651;49.138;8.900;2022-12-20T16:16:36;6.80;99.90
19037;DHT22;9651;49.138;8.900;2022-12-20T16:20:38;6.80;99.90
19037;DHT22;9651;49.138;8.900;2022-12-20T16:24:40;6.70;99.90
19037;DHT22;9651;49.138;8.900;2022-12-20T16:28:43;6.70;99.90
19037;DHT22;9651;49.138;8.900;2022-12-20T16:32:46;6.70;99.90
19037;DHT22;9651;49.138;8.900;2022-12-20T16:36:49;6.70;99.90
19037;DHT22;9651;49.138;8.900;2022-12-20T16:40:51;6.70;99.90
19037;DHT22;9651;49.138;8.900;2022-12-20T16:44:53;6.70;99.90
19037;DHT22;9651;49.138;8.900;2022-12-20T16:48:58;6.70;99.90
19037;DHT22;9651;49.138;8.900;2022-12-20T16:53:00;6.70;99.90
19037;DHT22;9651;49.138;8.900;2022-12-20T16:57:02;6.60;99.90
19037;DHT22;9651;49.138;8.900;2022-12-20T17:01:04;6.60;99.90
19037;DHT22;9651;49.138;8.900;2022-12-20T17:05:24;6.60;99.90
19037;DHT22;9651;49.138;8.900;2022-12-20T17:09:27;6.50;99.90
19037;DHT22;9651;49.138;8.900;2022-12-20T17:13:28;6.50;99.90
19037;DHT22;9651;49.138;8.900;2022-12-20T17:17:30;6.50;99.90
19037;DHT22;9651;49.138;8.900;2022-12-20T17:21:35;6.40;99.90
19037;DHT22;9651;49.138;8.900;2022-12-20T17:25:38;6.40;99.90
19037;DHT22;9651;49.138;8.900;2022-12-20T17:29:40;6.40;99.90
19037;DHT22;9651;49.138;8.900;2022-12-20T17:33:41;6.40;99.90
19037;DHT22;9651;49.138;8.900;2022-12-20T17:37:45;6.30;99.90
19037;DHT22;9651;49.138;8.900;2022-12-20T17:41:47;6.30;99.90
19037;DHT22;9651;49.138;8.900;2022-12-20T17:45:49;6.40;99.90
19037;DHT22;9651;49.138;8.900;2022-12-20T17:49:51;6.30;99.90
19037;DHT22;9651;49.138;8.900;2022-12-20T17:53:56;6.40;99.90
19037;DHT22;9651;49.138;8.900;2022-12-20T17:57:58;6.40;99.90
19037;DHT22;9651;49.138;8.900;2022-12-20T18:02:00;6.60;99.90
19037;DHT22;9651;49.138;8.900;2022-12-20T18:06:04;6.60;99.90
19037;DHT22;9651;49.138;8.900;2022-12-20T18:10:09;6.50;99.90
19037;DHT22;9651;49.138;8.900;2022-12-20T18:14:11;6.50;99.90
19037;DHT22;9651;49.138;8.900;2022-12-20T18:18:13;6.60;99.90
19037;DHT22;9651;49.138;8.900;2022-12-20T18:22:15;6.60;99.90
19037;DHT22;9651;49.138;8.900;2022-12-20T18:26:20;6.70;99.90
19037;DHT22;9651;49.138;8.900;2022-12-20T18:30:22;6.70;99.90
19037;DHT22;9651;49.138;8.900;2022-12-20T18:34:24;6.80;99.90
19037;DHT22;9651;49.138;8.900;2022-12-20T18:38:26;6.70;99.90
19037;DHT22;9651;49.138;8.900;2022-12-20T18:42:29;6.60;99.90
19037;DHT22;9651;49.138;8.900;2022-12-20T18:46:32;6.50;99.90
19037;DHT22;9651;49.138;8.900;2022-12-20T18:50:34;6.50;99.90
19037;DHT22;9651;49.138;8.900;2022-12-20T18:54:36;6.40;99.90
19037;DHT22;9651;49.138;8.900;2022-12-20T18:58:40;6.30;99.90
19037;DHT22;9651;49.138;8.900;2022-12-20T19:02:42;6.30;99.90
19037;DHT22;9651;49.138;8.900;2022-12-20T19:06:44;6.30;99.90
19037;DHT22;9651;49.138;8.900;2022-12-20T19:10:46;6.30;99.90
19037;DHT22;9651;49.138;8.900;2022-12-20T19:14:49;6.20;99.90
19037;DHT22;9651;49.138;8.900;2022-12-20T19:18:51;6.20;99.90
19037;DHT22;9651;49.138;8.900;2022-12-20T19:22:53;6.20;99.90
19037;DHT22;9651;49.138;8.900;2022-12-20T19:26:55;6.10;99.90
19037;DHT22;9651;49.138;8.900;2022-12-20T19:31:04;6.10;99.90
19037;DHT22;9651;49.138;8.900;2022-12-20T19:35:06;6.10;99.90
19037;DHT22;9651;49.138;8.900;2022-12-20T19:39:12;6.10;99.90
19037;DHT22;9651;49.138;8.900;2022-12-20T19:43:14;6.10;99.90
19037;DHT22;9651;49.138;8.900;2022-12-20T19:47:18;6.10;99.90
19037;DHT22;9651;49.138;8.900;2022-12-20T19:51:20;6.10;99.90
19037;DHT22;9651;49.138;8.900;2022-12-20T19:55:22;6.20;99.90
19037;DHT22;9651;49.138;8.900;2022-12-20T19:59:25;6.20;99.90
19037;DHT22;9651;49.138;8.900;2022-12-20T20:03:31;6.10;99.90
19037;DHT22;9651;49.138;8.900;2022-12-20T20:07:33;6.20;99.90
19037;DHT22;9651;49.138;8.900;2022-12-20T20:11:37;6.10;99.90
19037;DHT22;9651;49.138;8.900;2022-12-20T20:15:39;6.20;99.90
19037;DHT22;9651;49.138;8.900;2022-12-20T20:19:43;6.20;99.90
19037;DHT22;9651;49.138;8.900;2022-12-20T20:23:46;6.20;99.90
19037;DHT22;9651;49.138;8.900;2022-12-20T20:27:48;6.20;99.90
19037;DHT22;9651;49.138;8.900;2022-12-20T20:31:50;6.20;99.90
19037;DHT22;9651;49.138;8.900;2022-12-20T20:35:54;6.20;99.90
19037;DHT22;9651;49.138;8.900;2022-12-20T20:39:56;6.10;99.90
19037;DHT22;9651;49.138;8.900;2022-12-20T20:43:58;6.00;99.90
19037;DHT22;9651;49.138;8.900;2022-12-20T20:47:59;6.00;99.90
19037;DHT22;9651;49.138;8.900;2022-12-20T20:52:03;5.90;99.90
19037;DHT22;9651;49.138;8.900;2022-12-20T20:56:05;5.90;99.90
19037;DHT22;9651;49.138;8.900;2022-12-20T21:00:09;5.90;99.90
19037;DHT22;9651;49.138;8.900;2022-12-20T21:04:11;5.90;99.90
19037;DHT22;9651;49.138;8.900;2022-12-20T21:08:14;5.80;99.90
19037;DHT22;9651;49.138;8.900;2022-12-20T21:12:16;5.70;99.90
19037;DHT22;9651;49.138;8.900;2022-12-20T21:16:19;5.70;99.90
19037;DHT22;9651;49.138;8.900;2022-12-20T21:20:21;5.70;99.90
19037;DHT22;9651;49.138;8.900;2022-12-20T21:24:24;5.60;99.90
19037;DHT22;9651;49.138;8.900;2022-12-20T21:28:27;5.60;99.90
19037;DHT22;9651;49.138;8.900;2022-12-20T21:32:29;5.60;99.90
19037;DHT22;9651;49.138;8.900;2022-12-20T21:36:30;5.60;99.90
19037;DHT22;9651;49.138;8.900;2022-12-20T21:40:34;5.60;99.90
19037;DHT22;9651;49.138;8.900;2022-12-20T21:44:36;5.60;99.90
19037;DHT22;9651;49.138;8.900;2022-12-20T21:48:38;5.60;99.90
19037;DHT22;9651;49.138;8.900;2022-12-20T21:52:40;5.70;99.90
19037;DHT22;9651;49.138;8.900;2022-12-20T21:56:43;5.70;99.90
19037;DHT22;9651;49.138;8.900;2022-12-20T22:00:45;5.70;99.90
19037;DHT22;9651;49.138;8.900;2022-12-20T22:04:47;5.70;99.90
19037;DHT22;9651;49.138;8.900;2022-12-20T22:08:48;5.70;99.90
19037;DHT22;9651;49.138;8.900;2022-12-20T22:12:52;5.70;99.90
19037;DHT22;9651;49.138;8.900;2022-12-20T22:16:54;5.70;99.90
19037;DHT22;9651;49.138;8.900;2022-12-20T22:20:56;5.70;99.90
19037;DHT22;9651;49.138;8.900;2022-12-20T22:24:58;5.70;99.90
19037;DHT22;9651;49.138;8.900;2022-12-20T22:29:04;5.70;99.90
19037;DHT22;9651;49.138;8.900;2022-12-20T22:33:06;5.70;99.90
19037;DHT22;9651;49.138;8.900;2022-12-20T22:37:08;5.70;99.90
19037;DHT22;9651;49.138;8.900;2022-12-20T22:41:12;5.70;99.90
19037;DHT22;9651;49.138;8.900;2022-12-20T22:45:15;5.70;99.90
19037;DHT22;9651;49.138;8.900;2022-12-20T22:49:17;5.70;99.90
19037;DHT22;9651;49.138;8.900;2022-12-20T22:53:19;5.70;99.90
19037;DHT22;9651;49.138;8.900;2022-12-20T22:57:21;5.70;99.90
19037;DHT22;9651;49.138;8.900;2022-12-20T23:01:24;5.70;99.90
19037;DHT22;9651;49.138;8.900;2022-12-20T23:05:26;5.70;99.90
19037;DHT22;9651;49.138;8.900;2022-12-20T23:09:28;5.70;99.90
19037;DHT22;9651;49.138;8.900;2022-12-20T23:13:30;5.60;99.90
19037;DHT22;9651;49.138;8.900;2022-12-20T23:17:52;5.60;99.90
19037;DHT22;9651;49.138;8.900;2022-12-20T23:21:53;5.60;99.90
19037;DHT22;9651;49.138;8.900;2022-12-20T23:26:14;5.60;99.90
19037;DHT22;9651;49.138;8.900;2022-12-20T23:30:18;5.60;99.90
19037;DHT22;9651;49.138;8.900;2022-12-20T23:34:22;5.60;99.90
19037;DHT22;9651;49.138;8.900;2022-12-20T23:38:24;5.60;99.90
19037;DHT22;9651;49.138;8.900;2022-12-20T23:42:26;5.50;99.90
19037;DHT22;9651;49.138;8.900;2022-12-20T23:46:28;5.60;99.90
19037;DHT22;9651;49.138;8.900;2022-12-20T23:50:31;5.60;99.90
19037;DHT22;9651;49.138;8.900;2022-12-20T23:54:33;5.60;99.90
19037;DHT22;9651;49.138;8.900;2022-12-20T23:58:36;5.60;99.90
